createdAt,value
2023-05-15T00:02:17.836Z,10.30
2023-05-15T00:05:07.141Z,10.23
2023-05-15T00:07:55.144Z,10.26
2023-05-15T00:10:57.536Z,10.28
2023-05-15T00:13:48.438Z,10.35
2023-05-15T00:16:36.969Z,10.29
2023-05-15T00:19:25.008Z,10.46
2023-05-15T00:22:13.381Z,10.66
2023-05-15T00:25:01.295Z,10.79
2023-05-15T00:27:50.889Z,10.90
2023-05-15T00:30:38.833Z,10.92
2023-05-15T00:33:28.085Z,10.95
2023-05-15T00:36:17.390Z,10.94
2023-05-15T00:39:05.839Z,10.95
2023-05-15T00:41:54.693Z,10.97
2023-05-15T00:44:46.076Z,10.87
2023-05-15T00:47:35.600Z,10.76
2023-05-15T00:50:24.796Z,10.76
2023-05-15T00:53:12.776Z,10.60
2023-05-15T00:56:02.197Z,10.46
2023-05-15T00:58:51.977Z,10.24
2023-05-15T01:01:41.745Z,10.22
2023-05-15T01:04:29.956Z,10.32
2023-05-15T01:07:18.479Z,10.36
2023-05-15T01:10:09.024Z,10.39
2023-05-15T01:12:59.681Z,10.45
2023-05-15T01:15:47.617Z,10.48
2023-05-15T01:18:37.842Z,10.44
2023-05-15T01:22:01.099Z,10.28
2023-05-15T01:25:16.061Z,10.17
2023-05-15T01:28:08.826Z,9.88
2023-05-15T01:30:58.201Z,9.78
2023-05-15T01:33:51.145Z,9.82
2023-05-15T01:36:44.160Z,9.71
2023-05-15T01:39:35.161Z,9.58
2023-05-15T01:42:28.493Z,9.71
2023-05-15T01:45:19.467Z,9.73
2023-05-15T01:48:09.329Z,9.73
2023-05-15T01:51:02.351Z,9.71
2023-05-15T01:53:51.262Z,9.66
2023-05-15T01:56:45.348Z,9.59
2023-05-15T01:59:35.852Z,9.62
2023-05-15T02:02:26.659Z,9.54
2023-05-15T02:05:18.901Z,9.46
2023-05-15T02:08:09.436Z,9.32
2023-05-15T02:10:59.385Z,9.31
2023-05-15T02:13:48.221Z,9.24
2023-05-15T02:16:36.825Z,9.10
2023-05-15T02:19:26.231Z,9.16
2023-05-15T02:22:14.433Z,9.07
2023-05-15T02:25:02.363Z,9.04
2023-05-15T02:27:59.978Z,8.94
2023-05-15T02:30:55.877Z,8.92
2023-05-15T02:33:52.060Z,9.02
2023-05-15T02:36:45.597Z,9.17
2023-05-15T02:39:34.450Z,9.15
2023-05-15T02:42:23.671Z,9.13
2023-05-15T02:45:13.269Z,9.02
2023-05-15T02:48:02.676Z,9.04
2023-05-15T02:50:50.713Z,9.10
2023-05-15T02:53:42.318Z,9.01
2023-05-15T02:56:30.291Z,9.02
2023-05-15T02:59:20.302Z,8.91
2023-05-15T03:02:08.274Z,8.84
2023-05-15T03:04:56.539Z,8.76
2023-05-15T03:07:44.493Z,8.66
2023-05-15T03:10:34.095Z,8.58
2023-05-15T03:13:22.051Z,8.53
2023-05-15T03:16:10.455Z,8.45
2023-05-15T03:18:58.506Z,8.38
2023-05-15T03:21:46.814Z,8.40
2023-05-15T03:24:34.784Z,8.27
2023-05-15T03:27:24.333Z,8.33
2023-05-15T03:30:12.435Z,8.50
2023-05-15T03:33:03.854Z,8.35
2023-05-15T03:35:52.455Z,8.37
2023-05-15T03:38:41.732Z,8.39
2023-05-15T03:41:29.785Z,8.42
2023-05-15T03:44:19.275Z,8.33
2023-05-15T03:47:08.300Z,8.40
2023-05-15T03:49:56.469Z,8.35
2023-05-15T03:52:44.464Z,8.27
2023-05-15T03:55:32.900Z,8.21
2023-05-15T03:58:20.801Z,8.15
2023-05-15T04:01:10.208Z,8.10
2023-05-15T04:03:58.110Z,8.06
2023-05-15T04:06:46.520Z,8.08
2023-05-15T04:09:34.640Z,8.04
2023-05-15T04:12:22.773Z,8.02
2023-05-15T04:15:21.900Z,8.06
2023-05-15T04:18:11.376Z,8.08
2023-05-15T04:20:59.255Z,8.13
2023-05-15T04:23:47.883Z,8.09
2023-05-15T04:26:36.483Z,8.17
2023-05-15T04:29:25.027Z,8.21
2023-05-15T04:32:12.991Z,8.26
2023-05-15T04:35:02.551Z,8.31
2023-05-15T04:37:50.504Z,8.53
2023-05-15T04:40:38.447Z,8.67
2023-05-15T04:43:26.646Z,8.74
2023-05-15T04:46:14.690Z,8.69
2023-05-15T04:49:02.988Z,8.65
2023-05-15T04:51:52.228Z,8.60
2023-05-15T04:54:40.268Z,8.70
2023-05-15T04:57:28.327Z,8.80
2023-05-15T05:00:17.247Z,8.87
2023-05-15T05:03:05.364Z,8.90
2023-05-15T05:05:53.287Z,8.94
2023-05-15T05:08:42.919Z,8.90
2023-05-15T05:11:30.805Z,8.94
2023-05-15T05:14:18.999Z,9.00
2023-05-15T05:17:06.934Z,8.97
2023-05-15T05:19:55.007Z,9.28
2023-05-15T05:22:42.956Z,9.46
2023-05-15T05:25:32.572Z,9.62
2023-05-15T05:28:20.511Z,9.85
2023-05-15T05:31:08.486Z,10.07
2023-05-15T05:33:57.048Z,10.25
2023-05-15T05:36:44.952Z,10.52
2023-05-15T05:39:33.229Z,10.77
2023-05-15T05:42:22.499Z,10.97
2023-05-15T05:45:11.556Z,11.01
2023-05-15T05:47:59.797Z,11.10
2023-05-15T05:50:48.024Z,11.09
2023-05-15T05:53:37.542Z,11.09
2023-05-15T05:56:26.568Z,11.11
2023-05-15T05:59:16.400Z,11.14
2023-05-15T06:02:05.038Z,11.26
2023-05-15T06:04:53.293Z,11.34
2023-05-15T06:07:41.347Z,11.40
2023-05-15T06:10:29.938Z,11.52
2023-05-15T06:13:17.906Z,11.73
2023-05-15T06:16:07.877Z,11.90
2023-05-15T06:18:56.180Z,11.92
2023-05-15T06:21:44.176Z,11.93
2023-05-15T06:24:32.883Z,11.96
2023-05-15T06:27:20.964Z,12.12
2023-05-15T06:30:10.309Z,12.33
2023-05-15T06:32:59.870Z,12.49
2023-05-15T06:35:48.317Z,12.84
2023-05-15T06:38:36.571Z,12.99
2023-05-15T06:41:24.526Z,13.18
2023-05-15T06:44:12.727Z,13.27
2023-05-15T06:47:00.912Z,13.54
2023-05-15T06:49:50.404Z,13.91
2023-05-15T06:52:38.368Z,13.98
2023-05-15T06:55:26.898Z,14.30
2023-05-15T06:58:17.838Z,14.55
2023-05-15T07:01:07.389Z,15.00
2023-05-15T07:03:55.611Z,15.43
2023-05-15T07:06:45.508Z,15.68
2023-05-15T07:09:33.437Z,16.00
2023-05-15T07:12:21.589Z,15.94
2023-05-15T07:15:10.313Z,16.29
2023-05-15T07:17:58.507Z,16.60
2023-05-15T07:20:46.532Z,16.76
2023-05-15T07:23:35.815Z,17.20
2023-05-15T07:26:32.817Z,18.43
2023-05-15T07:29:24.714Z,18.36
2023-05-15T07:32:12.629Z,19.13
2023-05-15T07:35:00.809Z,18.89
2023-05-15T07:37:49.163Z,18.49
2023-05-15T07:40:38.579Z,17.73
2023-05-15T07:43:26.867Z,17.50
2023-05-15T07:46:14.860Z,17.93
2023-05-15T07:49:03.116Z,18.16
2023-05-15T07:51:51.129Z,18.15
2023-05-15T07:54:39.759Z,18.48
2023-05-15T07:57:29.023Z,18.43
2023-05-15T08:00:19.023Z,18.73
2023-05-15T08:03:07.167Z,18.83
2023-05-15T08:05:55.514Z,18.74
2023-05-15T08:08:43.654Z,18.99
2023-05-15T08:11:31.672Z,19.03
2023-05-15T08:14:20.983Z,18.40
2023-05-15T08:17:09.881Z,17.94
2023-05-15T08:19:57.817Z,17.51
2023-05-15T08:22:45.968Z,16.96
2023-05-15T08:25:33.918Z,17.17
2023-05-15T08:28:22.236Z,17.29
2023-05-15T08:31:11.491Z,17.42
2023-05-15T08:33:59.608Z,17.73
2023-05-15T08:36:47.544Z,17.59
2023-05-15T08:39:35.744Z,17.83
2023-05-15T08:42:29.241Z,17.25
2023-05-15T08:45:17.534Z,17.29
2023-05-15T08:48:12.262Z,17.65
2023-05-15T08:51:01.678Z,17.29
2023-05-15T08:53:50.715Z,17.97
2023-05-15T08:56:38.985Z,18.04
2023-05-15T08:59:27.311Z,18.04
2023-05-15T09:02:17.088Z,18.02
2023-05-15T09:05:07.439Z,18.09
2023-05-15T09:07:56.773Z,18.10
2023-05-15T09:10:45.584Z,18.32
2023-05-15T09:13:33.671Z,18.54
2023-05-15T09:16:22.315Z,18.56
2023-05-15T09:19:11.527Z,18.96
2023-05-15T09:22:16.539Z,18.73
2023-05-15T09:25:06.695Z,18.97
2023-05-15T09:27:54.958Z,19.11
2023-05-15T09:30:43.972Z,18.94
2023-05-15T09:33:34.891Z,19.32
2023-05-15T09:36:24.134Z,19.79
2023-05-15T09:39:13.411Z,19.57
2023-05-15T09:42:08.766Z,19.60
2023-05-15T09:44:56.708Z,18.82
2023-05-15T09:47:45.464Z,18.94
2023-05-15T09:50:35.214Z,19.39
2023-05-15T09:53:23.882Z,19.71
2023-05-15T09:56:13.362Z,19.87
2023-05-15T09:59:01.607Z,19.41
2023-05-15T10:01:50.701Z,19.44
2023-05-15T10:04:39.927Z,19.74
2023-05-15T10:07:32.119Z,19.61
2023-05-15T10:10:20.596Z,19.63
2023-05-15T10:13:11.995Z,20.22
2023-05-15T10:16:02.271Z,20.50
2023-05-15T10:18:52.299Z,20.26
2023-05-15T10:21:42.201Z,20.81
2023-05-15T10:24:32.297Z,20.77
2023-05-15T10:27:21.914Z,20.99
2023-05-15T10:30:12.540Z,20.74
2023-05-15T10:33:02.190Z,20.71
2023-05-15T10:35:52.251Z,20.94
2023-05-15T10:38:41.214Z,21.05
2023-05-15T10:41:31.386Z,20.99
2023-05-15T10:44:20.286Z,21.19
2023-05-15T10:47:10.535Z,21.47
2023-05-15T10:49:58.955Z,21.65
2023-05-15T10:52:47.216Z,21.53
2023-05-15T10:55:35.143Z,21.44
2023-05-15T10:58:24.581Z,21.24
2023-05-15T11:01:25.970Z,21.46
2023-05-15T11:04:17.525Z,21.61
2023-05-15T11:07:14.332Z,21.22
2023-05-15T11:10:38.850Z,21.92
2023-05-15T11:13:27.410Z,22.40
2023-05-15T11:16:36.488Z,22.24
2023-05-15T11:19:34.804Z,22.57
2023-05-15T11:22:28.668Z,22.46
2023-05-15T11:25:17.331Z,21.69
2023-05-15T11:28:07.729Z,21.51
2023-05-15T11:31:03.304Z,21.58
2023-05-15T11:33:52.469Z,21.64
2023-05-15T11:36:44.095Z,21.69
2023-05-15T11:39:40.211Z,22.52
2023-05-15T11:42:28.961Z,22.99
2023-05-15T11:45:17.350Z,22.98
2023-05-15T11:48:07.749Z,23.16
2023-05-15T11:50:56.397Z,23.31
2023-05-15T11:53:46.445Z,22.88
2023-05-15T11:56:34.919Z,22.59
2023-05-15T11:59:22.833Z,21.67
2023-05-15T12:02:11.275Z,21.52
2023-05-15T12:04:59.211Z,20.75
2023-05-15T12:07:47.775Z,19.67
2023-05-15T12:10:16.756Z,19.24
2023-05-15T12:12:46.259Z,19.42
2023-05-15T12:15:15.772Z,19.46
2023-05-15T12:17:45.220Z,19.70
2023-05-15T12:20:17.575Z,19.59
2023-05-15T12:22:45.853Z,19.69
2023-05-15T12:25:16.320Z,19.71
2023-05-15T12:27:45.702Z,19.81
2023-05-15T12:30:15.445Z,19.87
2023-05-15T12:32:43.704Z,20.53
2023-05-15T12:35:12.706Z,20.62
2023-05-15T12:37:41.210Z,21.39
2023-05-15T12:40:10.583Z,22.08
2023-05-15T12:42:42.631Z,22.57
2023-05-15T12:45:17.210Z,22.59
2023-05-15T12:47:47.113Z,22.91
2023-05-15T12:50:16.633Z,22.63
2023-05-15T12:52:49.027Z,21.75
2023-05-15T12:55:18.159Z,21.34
2023-05-15T12:57:46.084Z,20.83
2023-05-15T13:00:16.622Z,20.80
2023-05-15T13:02:45.779Z,20.60
2023-05-15T13:05:14.752Z,20.33
2023-05-15T13:07:43.030Z,20.40
2023-05-15T13:10:13.042Z,20.26
2023-05-15T13:12:43.945Z,20.09
2023-05-15T13:15:26.346Z,20.08
2023-05-15T13:18:00.494Z,19.97
2023-05-15T13:20:29.273Z,20.12
2023-05-15T13:22:56.950Z,19.84
2023-05-15T13:25:25.282Z,19.98
2023-05-15T13:27:52.980Z,20.02
2023-05-15T13:30:20.949Z,20.30
2023-05-15T13:32:50.002Z,21.39
2023-05-15T13:35:17.731Z,22.08
2023-05-15T13:37:45.894Z,22.28
2023-05-15T13:40:14.369Z,22.27
2023-05-15T13:42:44.887Z,21.92
2023-05-15T13:45:15.133Z,21.27
2023-05-15T13:47:43.694Z,20.61
2023-05-15T13:50:14.789Z,20.72
2023-05-15T13:52:43.563Z,20.24
2023-05-15T13:55:11.966Z,20.20
2023-05-15T13:57:41.171Z,20.21
2023-05-15T14:00:12.514Z,20.41
2023-05-15T14:02:41.425Z,20.31
2023-05-15T14:05:09.875Z,20.38
2023-05-15T14:07:39.708Z,20.01
2023-05-15T14:10:08.606Z,19.99
2023-05-15T14:12:37.520Z,20.06
2023-05-15T14:15:05.884Z,20.02
2023-05-15T14:17:33.737Z,20.15
2023-05-15T14:20:01.344Z,20.12
2023-05-15T14:22:29.161Z,19.60
2023-05-15T14:24:58.187Z,19.63
2023-05-15T14:27:26.254Z,19.50
2023-05-15T14:29:53.853Z,19.30
2023-05-15T14:32:22.158Z,18.87
2023-05-15T14:34:49.975Z,18.73
2023-05-15T14:37:17.908Z,18.41
2023-05-15T14:39:45.536Z,18.63
2023-05-15T14:42:14.514Z,18.61
2023-05-15T14:44:42.161Z,18.97
2023-05-15T14:47:12.430Z,18.88
2023-05-15T14:49:40.673Z,19.38
2023-05-15T14:52:10.630Z,19.85
2023-05-15T14:54:39.696Z,19.98
2023-05-15T14:57:07.923Z,20.23
2023-05-15T14:59:37.176Z,20.65
2023-05-15T15:02:04.962Z,21.02
2023-05-15T15:04:34.583Z,20.94
2023-05-15T15:07:04.840Z,20.28
2023-05-15T15:09:32.706Z,20.36
2023-05-15T15:12:00.361Z,20.20
2023-05-15T15:14:28.313Z,20.17
2023-05-15T15:16:57.291Z,20.54
2023-05-15T15:19:25.287Z,21.12
2023-05-15T15:21:52.977Z,21.43
2023-05-15T15:24:20.847Z,21.50
2023-05-15T15:26:48.432Z,21.83
2023-05-15T15:29:16.395Z,21.49
2023-05-15T15:31:44.116Z,21.29
2023-05-15T15:34:13.405Z,21.09
2023-05-15T15:36:41.459Z,20.95
2023-05-15T15:39:10.158Z,20.77
2023-05-15T15:41:39.324Z,20.40
2023-05-15T15:44:07.262Z,20.23
2023-05-15T15:46:34.908Z,20.24
2023-05-15T15:49:04.483Z,20.07
2023-05-15T15:51:34.903Z,19.91
2023-05-15T15:54:02.717Z,20.00
2023-05-15T15:56:30.563Z,19.66
2023-05-15T15:58:58.559Z,19.74
2023-05-15T16:01:26.337Z,19.62
2023-05-15T16:03:54.168Z,19.59
2023-05-15T16:06:21.812Z,19.48
2023-05-15T16:08:52.348Z,19.63
2023-05-15T16:11:19.926Z,19.35
2023-05-15T16:13:47.956Z,19.65
2023-05-15T16:16:15.605Z,19.43
2023-05-15T16:18:43.467Z,19.57
2023-05-15T16:21:11.394Z,19.54
2023-05-15T16:23:40.688Z,19.31
2023-05-15T16:26:10.953Z,19.32
2023-05-15T16:28:38.857Z,19.06
2023-05-15T16:31:06.601Z,19.34
2023-05-15T16:33:34.637Z,19.28
2023-05-15T16:36:05.424Z,19.14
2023-05-15T16:38:33.114Z,19.05
2023-05-15T16:41:01.699Z,18.83
2023-05-15T16:43:30.754Z,18.66
2023-05-15T16:45:59.177Z,18.50
2023-05-15T16:48:27.835Z,18.71
2023-05-15T16:50:55.920Z,18.76
2023-05-15T16:53:23.703Z,18.63
2023-05-15T16:55:51.910Z,18.85
2023-05-15T16:58:20.066Z,18.75
2023-05-15T17:00:49.412Z,18.67
2023-05-15T17:03:17.853Z,18.77
2023-05-15T17:05:46.377Z,18.76
2023-05-15T17:08:14.206Z,18.94
2023-05-15T17:10:41.956Z,19.17
2023-05-15T17:13:09.595Z,18.89
2023-05-15T17:15:37.373Z,18.61
2023-05-15T17:18:06.547Z,18.41
2023-05-15T17:20:34.440Z,18.53
2023-05-15T17:23:02.028Z,18.22
2023-05-15T17:25:29.937Z,18.14
2023-05-15T17:27:57.570Z,17.96
2023-05-15T17:30:25.722Z,17.88
2023-05-15T17:32:53.499Z,17.79
2023-05-15T17:35:22.893Z,17.27
2023-05-15T17:37:51.579Z,17.57
2023-05-15T17:40:19.594Z,17.48
2023-05-15T17:42:47.248Z,17.67
2023-05-15T17:45:15.088Z,17.53
2023-05-15T17:47:42.754Z,17.43
2023-05-15T17:50:11.579Z,17.53
2023-05-15T17:52:40.552Z,17.38
2023-05-15T17:55:09.385Z,17.38
2023-05-15T17:57:36.992Z,17.45
2023-05-15T18:00:07.331Z,17.32
2023-05-15T18:02:39.868Z,17.06
2023-05-15T18:05:08.540Z,17.03
2023-05-15T18:07:36.175Z,16.90
2023-05-15T18:10:06.911Z,16.70
2023-05-15T18:12:35.167Z,16.59
2023-05-15T18:15:03.194Z,16.50
2023-05-15T18:17:30.855Z,16.36
2023-05-15T18:19:58.494Z,16.13
2023-05-15T18:22:26.262Z,15.90
2023-05-15T18:24:53.900Z,15.81
2023-05-15T18:27:22.914Z,15.58
2023-05-15T18:29:51.500Z,15.45
2023-05-15T18:32:19.734Z,15.13
2023-05-15T18:34:47.803Z,14.87
2023-05-15T18:37:16.129Z,14.64
2023-05-15T18:39:44.125Z,14.47
2023-05-15T18:42:11.978Z,14.22
2023-05-15T18:44:41.197Z,14.07
2023-05-15T18:47:09.462Z,13.88
2023-05-15T18:49:37.284Z,13.79
2023-05-15T18:52:05.839Z,13.34
2023-05-15T18:54:33.665Z,13.36
2023-05-15T18:57:02.072Z,13.26
2023-05-15T18:59:30.019Z,13.20
2023-05-15T19:01:59.649Z,13.01
2023-05-15T19:04:27.272Z,12.93
2023-05-15T19:06:55.120Z,12.77
2023-05-15T19:09:22.695Z,12.68
2023-05-15T19:11:52.510Z,12.55
2023-05-15T19:14:20.196Z,12.51
2023-05-15T19:16:47.959Z,12.50
2023-05-15T19:19:17.063Z,12.45
2023-05-15T19:21:45.180Z,12.49
2023-05-15T19:24:12.797Z,12.53
2023-05-15T19:26:40.725Z,12.59
2023-05-15T19:29:08.340Z,12.56
2023-05-15T19:31:37.554Z,12.51
2023-05-15T19:34:05.426Z,12.51
2023-05-15T19:36:34.592Z,12.56
2023-05-15T19:39:02.331Z,12.61
2023-05-15T19:41:30.376Z,12.67
2023-05-15T19:43:57.978Z,12.78
2023-05-15T19:46:25.679Z,12.80
2023-05-15T19:48:53.740Z,12.79
2023-05-15T19:51:21.429Z,12.80
2023-05-15T19:53:50.464Z,12.80
2023-05-15T19:56:18.333Z,12.80
2023-05-15T19:58:46.265Z,12.82
2023-05-15T20:01:13.919Z,12.77
2023-05-15T20:03:41.994Z,12.87
2023-05-15T20:06:10.268Z,12.84
2023-05-15T20:08:38.180Z,12.85
2023-05-15T20:11:07.198Z,12.76
2023-05-15T20:13:35.449Z,12.71
2023-05-15T20:16:06.982Z,12.64
2023-05-15T20:18:35.804Z,12.58
2023-05-15T20:21:03.414Z,12.59
2023-05-15T20:23:31.410Z,12.60
2023-05-15T20:25:59.091Z,12.55
2023-05-15T20:28:29.189Z,12.67
2023-05-15T20:30:57.613Z,12.58
2023-05-15T20:33:25.480Z,12.63
2023-05-15T20:35:53.946Z,12.57
2023-05-15T20:38:23.372Z,12.55
2023-05-15T20:40:51.115Z,12.54
2023-05-15T20:43:18.770Z,12.62
2023-05-15T20:45:48.015Z,12.61
2023-05-15T20:48:15.641Z,12.44
2023-05-15T20:50:43.617Z,12.43
2023-05-15T20:53:11.275Z,12.44
2023-05-15T20:55:39.549Z,12.42
2023-05-15T20:58:07.621Z,12.37
2023-05-15T21:00:35.651Z,12.35
2023-05-15T21:03:05.317Z,12.38
2023-05-15T21:05:33.101Z,12.42
2023-05-15T21:08:00.767Z,12.46
2023-05-15T21:10:28.909Z,12.52
2023-05-15T21:12:59.135Z,12.59
2023-05-15T21:15:27.417Z,12.56
2023-05-15T21:17:55.029Z,12.57
2023-05-15T21:20:24.486Z,12.56
2023-05-15T21:22:52.286Z,12.56
2023-05-15T21:25:20.296Z,12.54
2023-05-15T21:27:47.889Z,12.50
2023-05-15T21:30:15.984Z,12.54
2023-05-15T21:32:44.061Z,12.51
2023-05-15T21:35:11.778Z,12.54
2023-05-15T21:37:41.022Z,12.44
2023-05-15T21:40:09.889Z,12.52
2023-05-15T21:42:37.826Z,12.44
2023-05-15T21:45:06.968Z,12.39
2023-05-15T21:47:35.012Z,12.37
2023-05-15T21:50:02.828Z,12.35
2023-05-15T21:52:30.728Z,12.41
2023-05-15T21:54:59.675Z,12.36
2023-05-15T21:57:27.270Z,12.33
2023-05-15T21:59:54.935Z,12.40
2023-05-15T22:02:23.268Z,12.38
2023-05-15T22:04:50.925Z,12.40
2023-05-15T22:07:19.036Z,12.33
2023-05-15T22:09:46.667Z,12.30
2023-05-15T22:12:16.080Z,12.27
2023-05-15T22:14:57.503Z,12.22
2023-05-15T22:17:27.463Z,12.28
2023-05-15T22:20:02.516Z,12.20
2023-05-15T22:22:30.467Z,12.18
2023-05-15T22:24:58.071Z,12.19
2023-05-15T22:27:27.950Z,12.19
2023-05-15T22:29:55.771Z,12.22
2023-05-15T22:32:23.830Z,12.25
2023-05-15T22:34:51.561Z,12.23
2023-05-15T22:37:19.598Z,12.23
2023-05-15T22:39:47.199Z,12.19
2023-05-15T22:42:15.080Z,12.20
2023-05-15T22:44:44.072Z,12.21
2023-05-15T22:47:11.936Z,12.22
2023-05-15T22:49:39.708Z,12.26
2023-05-15T22:52:08.090Z,12.18
2023-05-15T22:54:35.852Z,12.18
2023-05-15T22:57:03.441Z,12.24
2023-05-15T22:59:31.376Z,12.21
2023-05-15T23:02:00.481Z,12.25
2023-05-15T23:04:28.721Z,12.26
2023-05-15T23:06:56.975Z,12.26
2023-05-15T23:09:24.972Z,12.31
2023-05-15T23:11:52.645Z,12.35
2023-05-15T23:14:22.275Z,12.33
2023-05-15T23:16:50.202Z,12.43
2023-05-15T23:19:19.635Z,12.34
2023-05-15T23:21:47.701Z,12.32
2023-05-15T23:24:16.030Z,12.30
2023-05-15T23:26:44.184Z,12.31
2023-05-15T23:29:12.122Z,12.41
2023-05-15T23:31:39.926Z,12.36
2023-05-15T23:34:07.862Z,12.42
2023-05-15T23:36:36.869Z,12.43
2023-05-15T23:39:05.642Z,12.48
2023-05-15T23:41:33.555Z,12.43
2023-05-15T23:44:01.195Z,12.32
2023-05-15T23:46:29.003Z,12.40
2023-05-15T23:48:56.673Z,12.38
2023-05-15T23:51:24.963Z,12.41
2023-05-15T23:53:54.067Z,12.34
2023-05-15T23:56:23.457Z,12.31
2023-05-15T23:58:51.095Z,12.41
